createdAt,value
2023-02-11T00:00:40.686Z,2.10
2023-02-11T00:03:07.522Z,2.45
2023-02-11T00:05:34.586Z,2.17
2023-02-11T00:08:01.318Z,3.17
2023-02-11T00:10:28.097Z,2.38
2023-02-11T00:12:55.238Z,3.03
2023-02-11T00:15:21.961Z,2.72
2023-02-11T00:17:48.717Z,2.20
2023-02-11T00:20:15.938Z,2.15
2023-02-11T00:22:42.678Z,1.65
2023-02-11T00:25:09.355Z,1.90
2023-02-11T00:27:37.346Z,2.70
2023-02-11T00:30:04.765Z,2.42
2023-02-11T00:32:31.600Z,4.10
2023-02-11T00:34:58.370Z,2.05
2023-02-11T00:37:25.156Z,2.42
2023-02-11T00:39:51.964Z,2.92
2023-02-11T00:42:18.712Z,2.08
2023-02-11T00:44:45.510Z,1.80
2023-02-11T00:47:12.195Z,1.95
2023-02-11T00:49:38.902Z,1.77
2023-02-11T00:52:05.684Z,2.03
2023-02-11T00:54:32.414Z,1.70
2023-02-11T00:56:59.306Z,2.20
2023-02-11T00:59:26.049Z,2.80
2023-02-11T01:01:52.765Z,1.63
2023-02-11T01:04:19.932Z,2.03
2023-02-11T01:06:46.640Z,2.00
2023-02-11T01:09:13.409Z,1.73
2023-02-11T01:11:40.092Z,3.40
2023-02-11T01:14:06.802Z,1.77
2023-02-11T01:16:33.793Z,2.45
2023-02-11T01:19:00.514Z,2.90
2023-02-11T01:21:27.222Z,2.47
2023-02-11T01:23:54.010Z,3.55
2023-02-11T01:26:20.736Z,2.42
2023-02-11T01:28:47.495Z,3.03
2023-02-11T01:31:14.434Z,3.08
2023-02-11T01:33:41.171Z,2.70
2023-02-11T01:36:08.367Z,2.83
2023-02-11T01:38:35.234Z,3.50
2023-02-11T01:41:04.932Z,2.92
2023-02-11T01:43:33.475Z,2.42
2023-02-11T01:46:02.969Z,2.65
2023-02-11T01:48:32.878Z,3.17
2023-02-11T01:51:14.695Z,2.47
2023-02-11T01:53:41.480Z,3.40
2023-02-11T01:56:08.189Z,3.53
2023-02-11T01:58:34.884Z,3.88
2023-02-11T02:01:01.564Z,3.20
2023-02-11T02:03:28.267Z,3.17
2023-02-11T02:06:00.210Z,4.45
2023-02-11T02:08:31.396Z,2.97
2023-02-11T02:10:58.223Z,3.50
2023-02-11T02:13:25.311Z,3.42
2023-02-11T02:15:53.608Z,2.90
2023-02-11T02:18:32.238Z,3.97
2023-02-11T02:21:17.487Z,3.88
2023-02-11T02:24:03.514Z,3.60
2023-02-11T02:26:47.054Z,3.17
2023-02-11T02:29:38.892Z,3.55
2023-02-11T02:32:24.767Z,3.78
2023-02-11T02:35:10.620Z,3.28
2023-02-11T02:37:44.679Z,3.45
2023-02-11T02:40:14.493Z,3.40
2023-02-11T02:42:41.189Z,3.95
2023-02-11T02:45:08.446Z,3.13
2023-02-11T02:47:35.110Z,3.22
2023-02-11T02:50:01.805Z,2.50
2023-02-11T02:52:57.684Z,3.42
2023-02-11T02:55:30.500Z,2.63
2023-02-11T02:58:24.871Z,2.50
2023-02-11T03:01:08.935Z,4.18
2023-02-11T03:03:45.153Z,3.55
2023-02-11T03:06:16.808Z,2.85
2023-02-11T03:08:49.494Z,5.28
2023-02-11T03:11:17.408Z,2.90
2023-02-11T03:13:44.186Z,3.15
2023-02-11T03:16:16.474Z,3.38
2023-02-11T03:18:46.455Z,2.63
2023-02-11T03:21:13.199Z,3.67
2023-02-11T03:23:54.665Z,3.10
2023-02-11T03:26:40.953Z,3.55
2023-02-11T03:29:19.018Z,4.35
2023-02-11T03:31:54.863Z,4.65
2023-02-11T03:34:35.487Z,3.72
2023-02-11T03:37:05.733Z,2.85
2023-02-11T03:39:38.007Z,2.47
2023-02-11T03:42:04.835Z,3.38
2023-02-11T03:44:35.139Z,3.30
2023-02-11T03:47:01.902Z,3.00
2023-02-11T03:49:28.602Z,4.32
2023-02-11T03:51:55.269Z,4.22
2023-02-11T03:54:26.611Z,2.70
2023-02-11T03:56:55.202Z,3.60
2023-02-11T03:59:22.072Z,3.10
2023-02-11T04:01:48.917Z,3.03
2023-02-11T04:04:15.963Z,4.47
2023-02-11T04:06:42.676Z,3.63
2023-02-11T04:09:10.071Z,2.55
2023-02-11T04:11:36.771Z,4.07
2023-02-11T04:14:03.605Z,4.60
2023-02-11T04:16:30.400Z,3.00
2023-02-11T04:18:57.590Z,4.40
2023-02-11T04:21:24.282Z,4.30
2023-02-11T04:23:50.943Z,2.75
2023-02-11T04:26:17.655Z,3.22
2023-02-11T04:28:44.413Z,3.17
2023-02-11T04:31:11.150Z,3.45
2023-02-11T04:33:37.874Z,3.17
2023-02-11T04:36:04.774Z,2.97
2023-02-11T04:38:31.477Z,4.22
2023-02-11T04:40:58.424Z,3.10
2023-02-11T04:43:25.099Z,2.97
2023-02-11T04:45:52.061Z,3.30
2023-02-11T04:48:19.469Z,6.13
2023-02-11T04:50:47.115Z,3.30
2023-02-11T04:53:14.784Z,3.20
2023-02-11T04:55:41.940Z,2.78
2023-02-11T04:58:08.617Z,2.65
2023-02-11T05:00:35.388Z,3.03
2023-02-11T05:03:02.684Z,2.55
2023-02-11T05:05:29.455Z,1.98
2023-02-11T05:07:56.123Z,2.85
2023-02-11T05:10:22.860Z,1.40
2023-02-11T05:12:49.790Z,3.13
2023-02-11T05:15:16.605Z,1.65
2023-02-11T05:17:43.494Z,3.05
2023-02-11T05:20:10.732Z,2.70
2023-02-11T05:22:37.496Z,1.77
2023-02-11T05:25:04.375Z,2.30
2023-02-11T05:27:31.110Z,2.55
2023-02-11T05:29:57.868Z,3.08
2023-02-11T05:32:24.538Z,2.08
2023-02-11T05:34:51.267Z,2.03
2023-02-11T05:37:17.962Z,2.45
2023-02-11T05:39:44.717Z,1.63
2023-02-11T05:42:11.530Z,2.15
2023-02-11T05:44:38.402Z,3.42
2023-02-11T05:47:05.139Z,2.17
2023-02-11T05:49:31.914Z,2.25
2023-02-11T05:51:58.723Z,1.73
2023-02-11T05:54:25.445Z,2.85
2023-02-11T05:56:52.208Z,2.13
2023-02-11T05:59:18.945Z,1.30
2023-02-11T06:01:45.646Z,1.70
2023-02-11T06:04:12.334Z,1.98
2023-02-11T06:06:39.025Z,1.55
2023-02-11T06:09:05.720Z,1.48
2023-02-11T06:11:32.397Z,1.73
2023-02-11T06:13:59.172Z,2.40
2023-02-11T06:16:25.895Z,1.50
2023-02-11T06:18:52.661Z,1.98
2023-02-11T06:21:19.428Z,1.80
2023-02-11T06:23:46.211Z,1.13
2023-02-11T06:26:18.193Z,1.17
2023-02-11T06:28:45.071Z,1.90
2023-02-11T06:31:12.031Z,0.85
2023-02-11T06:33:39.033Z,1.38
2023-02-11T06:36:12.006Z,1.95
2023-02-11T06:38:38.706Z,1.65
2023-02-11T06:41:05.419Z,0.70
2023-02-11T06:43:32.142Z,1.10
2023-02-11T06:45:58.888Z,1.20
2023-02-11T06:48:25.569Z,1.45
2023-02-11T06:50:52.275Z,0.90
2023-02-11T06:53:19.191Z,1.85
2023-02-11T06:55:45.880Z,1.73
2023-02-11T06:58:12.605Z,1.30
2023-02-11T07:00:39.281Z,2.60
2023-02-11T07:03:06.117Z,1.15
2023-02-11T07:05:32.857Z,3.58
2023-02-11T07:07:59.710Z,2.55
2023-02-11T07:10:26.571Z,1.92
2023-02-11T07:12:53.295Z,1.02
2023-02-11T07:15:20.047Z,1.45
2023-02-11T07:17:46.811Z,1.08
2023-02-11T07:20:13.526Z,1.27
2023-02-11T07:22:40.291Z,1.85
2023-02-11T07:25:07.198Z,1.10
2023-02-11T07:27:33.971Z,1.75
2023-02-11T07:30:00.677Z,0.95
2023-02-11T07:32:27.453Z,0.80
2023-02-11T07:34:54.275Z,4.50
2023-02-11T07:37:21.049Z,0.90
2023-02-11T07:39:47.756Z,1.38
2023-02-11T07:42:14.461Z,1.63
2023-02-11T07:44:41.135Z,1.60
2023-02-11T07:47:07.920Z,1.73
2023-02-11T07:49:34.708Z,0.70
2023-02-11T07:52:01.502Z,3.53
2023-02-11T07:54:28.231Z,0.43
2023-02-11T07:56:55.361Z,1.60
2023-02-11T07:59:22.203Z,0.73
2023-02-11T08:01:48.908Z,1.15
2023-02-11T08:04:15.622Z,0.40
2023-02-11T08:06:42.775Z,1.13
2023-02-11T08:09:10.737Z,1.58
2023-02-11T08:11:37.416Z,0.60
2023-02-11T08:14:04.160Z,0.45
2023-02-11T08:16:32.773Z,1.00
2023-02-11T08:19:01.314Z,0.50
2023-02-11T08:21:28.265Z,0.60
2023-02-11T08:23:55.176Z,0.50
2023-02-11T08:26:26.499Z,1.15
2023-02-11T08:28:54.243Z,0.52
2023-02-11T08:31:25.869Z,0.68
2023-02-11T08:33:52.852Z,1.38
2023-02-11T08:36:21.540Z,1.10
2023-02-11T08:38:48.341Z,0.50
2023-02-11T08:41:15.152Z,1.67
2023-02-11T08:43:44.669Z,1.02
2023-02-11T08:46:16.081Z,1.88
2023-02-11T08:48:43.190Z,1.35
2023-02-11T08:51:11.776Z,0.40
2023-02-11T08:53:38.576Z,0.60
2023-02-11T08:56:06.306Z,2.25
2023-02-11T08:58:33.478Z,3.50
2023-02-11T09:01:00.237Z,2.33
2023-02-11T09:03:27.166Z,0.50
2023-02-11T09:05:53.876Z,1.38
2023-02-11T09:08:20.859Z,0.57
2023-02-11T09:10:47.675Z,3.55
2023-02-11T09:13:14.382Z,0.68
2023-02-11T09:15:41.120Z,1.17
2023-02-11T09:18:08.264Z,0.52
2023-02-11T09:20:34.956Z,0.60
2023-02-11T09:23:01.666Z,3.40
2023-02-11T09:25:28.510Z,0.20
2023-02-11T09:27:55.199Z,0.52
2023-02-11T09:30:22.104Z,1.58
2023-02-11T09:32:49.041Z,0.85
2023-02-11T09:35:15.815Z,0.45
2023-02-11T09:37:42.620Z,0.22
2023-02-11T09:40:10.099Z,1.15
2023-02-11T09:42:52.198Z,0.38
2023-02-11T09:45:26.285Z,6.32
2023-02-11T09:48:06.334Z,0.38
2023-02-11T09:50:41.988Z,1.10
2023-02-11T09:53:24.685Z,0.30
2023-02-11T09:56:02.113Z,1.17
2023-02-11T09:58:32.365Z,1.50
2023-02-11T10:01:23.892Z,0.85
2023-02-11T10:04:24.583Z,0.68
2023-02-11T10:06:58.096Z,1.63
2023-02-11T10:09:49.905Z,1.50
2023-02-11T10:12:16.644Z,0.63
2023-02-11T10:15:02.049Z,0.50
2023-02-11T10:17:53.029Z,1.35
2023-02-11T10:20:38.314Z,0.57
2023-02-11T10:23:17.049Z,9.60
2023-02-11T10:25:45.493Z,0.30
2023-02-11T10:28:16.754Z,0.82
2023-02-11T10:31:03.179Z,0.82
2023-02-11T10:33:43.978Z,2.40
2023-02-11T10:36:14.651Z,0.35
2023-02-11T10:38:41.418Z,1.58
2023-02-11T10:41:30.326Z,0.63
2023-02-11T10:43:57.054Z,1.15
2023-02-11T10:46:25.403Z,3.17
2023-02-11T10:48:53.000Z,1.65
2023-02-11T10:51:24.055Z,1.17
2023-02-11T10:54:06.222Z,2.67
2023-02-11T10:56:34.775Z,0.37
2023-02-11T10:59:26.632Z,1.42
2023-02-11T11:01:58.073Z,0.20
2023-02-11T11:04:31.073Z,0.82
2023-02-11T11:07:19.352Z,0.35
2023-02-11T11:10:37.059Z,0.93
2023-02-11T11:16:49.246Z,2.50
2023-02-11T11:19:57.914Z,0.45
2023-02-11T11:30:01.525Z,0.52
2023-02-11T11:33:26.499Z,0.40
2023-02-11T11:36:07.593Z,1.55
2023-02-11T11:38:36.306Z,0.30
2023-02-11T11:41:23.097Z,0.30
2023-02-11T11:44:13.953Z,0.60
2023-02-11T11:46:42.264Z,0.50
2023-02-11T11:49:23.070Z,0.73
2023-02-11T11:52:26.931Z,2.45
2023-02-11T11:55:01.107Z,0.93
2023-02-11T11:57:27.959Z,1.02
2023-02-11T11:59:54.750Z,3.60
2023-02-11T12:02:27.371Z,1.55
2023-02-11T12:05:15.200Z,6.40
2023-02-11T12:08:04.077Z,5.75
2023-02-11T12:11:00.255Z,2.45
2023-02-11T12:13:39.266Z,0.77
2023-02-11T12:16:32.071Z,2.42
2023-02-11T12:19:22.787Z,1.58
2023-02-11T12:22:05.430Z,0.70
2023-02-11T12:24:44.364Z,0.60
2023-02-11T12:27:36.228Z,0.90
2023-02-11T12:30:21.008Z,3.45
2023-02-11T12:32:55.645Z,2.17
2023-02-11T12:35:32.728Z,2.90
2023-02-11T12:38:15.713Z,0.50
2023-02-11T12:40:46.203Z,2.78
2023-02-11T12:43:23.768Z,0.57
2023-02-11T12:46:02.747Z,0.75
2023-02-11T12:48:35.877Z,1.38
2023-02-11T12:51:17.423Z,5.70
2023-02-11T12:54:21.817Z,3.60
2023-02-11T12:56:51.303Z,0.30
2023-02-11T12:59:56.696Z,1.05
2023-02-11T13:02:43.361Z,4.57
2023-02-11T13:05:44.949Z,0.95
2023-02-11T13:08:17.779Z,0.90
2023-02-11T13:13:53.969Z,1.38
2023-02-11T13:16:35.886Z,0.30
2023-02-11T13:19:38.252Z,1.30
2023-02-11T13:22:20.058Z,0.93
2023-02-11T13:24:51.130Z,0.75
2023-02-11T13:27:48.867Z,2.00
2023-02-11T13:30:18.699Z,0.50
2023-02-11T13:32:55.022Z,0.50
2023-02-11T13:35:34.149Z,1.42
2023-02-11T13:38:05.076Z,1.02
2023-02-11T13:40:36.766Z,0.57
2023-02-11T13:43:04.921Z,1.60
2023-02-11T13:45:43.947Z,0.63
2023-02-11T13:48:32.831Z,1.17
2023-02-11T13:51:01.977Z,0.47
2023-02-11T13:53:28.744Z,0.80
2023-02-11T13:56:28.736Z,0.47
2023-02-11T13:58:55.517Z,0.68
2023-02-11T14:01:42.112Z,1.35
2023-02-11T14:04:25.177Z,0.65
2023-02-11T14:09:41.866Z,1.80
2023-02-11T14:12:35.130Z,0.43
2023-02-11T14:17:34.175Z,0.70
2023-02-11T14:20:02.142Z,1.92
2023-02-11T14:22:48.920Z,0.75
2023-02-11T14:25:24.022Z,0.63
2023-02-11T14:27:50.791Z,0.80
2023-02-11T14:30:43.982Z,0.85
2023-02-11T14:36:01.151Z,0.60
2023-02-11T14:38:39.812Z,1.25
2023-02-11T14:41:25.517Z,0.85
2023-02-11T14:44:04.304Z,0.60
2023-02-11T14:46:31.183Z,2.83
2023-02-11T14:48:59.181Z,0.40
2023-02-11T14:51:26.691Z,1.20
2023-02-11T14:53:56.512Z,1.38
2023-02-11T14:56:25.011Z,0.93
2023-02-11T14:58:51.938Z,0.90
2023-02-11T15:01:29.982Z,4.00
2023-02-11T15:03:56.753Z,1.38
2023-02-11T15:06:37.243Z,0.68
2023-02-11T15:09:06.183Z,1.95
2023-02-11T15:11:34.714Z,0.98
2023-02-11T15:14:15.089Z,0.88
2023-02-11T15:16:43.211Z,0.80
2023-02-11T15:19:21.326Z,0.60
2023-02-11T15:21:48.092Z,3.55
2023-02-11T15:24:23.114Z,0.82
2023-02-11T15:27:19.383Z,1.20
2023-02-11T15:29:47.726Z,1.50
2023-02-11T15:32:21.332Z,0.80
2023-02-11T15:34:49.175Z,3.80
2023-02-11T15:37:26.819Z,2.10
2023-02-11T15:39:54.213Z,1.90
2023-02-11T15:42:28.022Z,3.05
2023-02-11T15:45:09.892Z,1.17
2023-02-11T15:47:36.618Z,0.70
2023-02-11T15:50:03.459Z,3.35
2023-02-11T15:52:30.180Z,1.05
2023-02-11T15:54:57.421Z,2.67
2023-02-11T15:57:24.196Z,2.55
2023-02-11T15:59:52.317Z,2.58
2023-02-11T16:02:21.607Z,2.42
2023-02-11T16:04:55.106Z,1.65
2023-02-11T16:07:47.332Z,2.33
2023-02-11T16:10:29.783Z,1.10
2023-02-11T16:13:08.718Z,1.45
2023-02-11T16:15:35.476Z,2.67
2023-02-11T16:18:02.752Z,1.00
2023-02-11T16:20:29.456Z,0.88
2023-02-11T16:22:56.161Z,2.33
2023-02-11T16:25:22.959Z,2.33
2023-02-11T16:27:51.417Z,3.22
2023-02-11T16:30:33.283Z,3.75
2023-02-11T16:33:00.177Z,5.60
2023-02-11T16:35:26.886Z,5.28
2023-02-11T16:37:53.584Z,0.90
2023-02-11T16:40:20.453Z,2.15
2023-02-11T16:42:47.180Z,1.83
2023-02-11T16:45:14.101Z,1.35
2023-02-11T16:47:40.902Z,1.60
2023-02-11T16:50:12.194Z,2.75
2023-02-11T16:52:38.892Z,5.13
2023-02-11T16:55:06.032Z,4.68
2023-02-11T16:57:32.791Z,2.10
2023-02-11T16:59:59.525Z,1.65
2023-02-11T17:02:27.794Z,1.60
2023-02-11T17:04:55.191Z,3.05
2023-02-11T17:07:22.067Z,4.13
2023-02-11T17:09:48.813Z,2.72
2023-02-11T17:12:15.540Z,3.65
2023-02-11T17:14:42.270Z,3.30
2023-02-11T17:17:09.944Z,2.75
2023-02-11T17:19:36.659Z,4.15
2023-02-11T17:22:03.533Z,3.08
2023-02-11T17:24:30.317Z,2.38
2023-02-11T17:26:57.018Z,3.67
2023-02-11T17:29:24.298Z,2.35
2023-02-11T17:31:52.156Z,2.33
2023-02-11T17:34:19.564Z,4.18
2023-02-11T17:36:46.431Z,2.08
2023-02-11T17:39:13.486Z,2.13
2023-02-11T17:41:40.353Z,1.35
2023-02-11T17:44:08.579Z,1.05
2023-02-11T17:46:35.738Z,5.53
2023-02-11T17:49:02.576Z,3.50
2023-02-11T17:51:35.879Z,2.88
2023-02-11T17:54:07.618Z,3.60
2023-02-11T17:56:35.663Z,1.05
2023-02-11T17:59:02.773Z,2.67
2023-02-11T18:01:30.139Z,1.65
2023-02-11T18:03:56.883Z,4.07
2023-02-11T18:06:23.566Z,1.40
2023-02-11T18:08:50.288Z,1.60
2023-02-11T18:11:17.105Z,6.95
2023-02-11T18:13:44.286Z,2.15
2023-02-11T18:16:11.180Z,4.40
2023-02-11T18:18:37.916Z,3.22
2023-02-11T18:21:04.909Z,2.85
2023-02-11T18:23:31.610Z,2.45
2023-02-11T18:25:58.481Z,1.85
2023-02-11T18:28:25.281Z,4.43
2023-02-11T18:31:01.333Z,2.65
2023-02-11T18:33:28.464Z,3.22
2023-02-11T18:35:55.700Z,5.00
2023-02-11T18:38:22.679Z,4.45
2023-02-11T18:40:49.714Z,5.40
2023-02-11T18:43:20.023Z,4.40
2023-02-11T18:45:47.225Z,2.47
2023-02-11T18:48:14.225Z,3.47
2023-02-11T18:50:45.308Z,2.22
2023-02-11T18:53:12.805Z,1.88
2023-02-11T18:55:40.326Z,3.55
2023-02-11T18:58:07.168Z,3.30
2023-02-11T19:00:34.338Z,3.10
2023-02-11T19:03:01.063Z,2.45
2023-02-11T19:05:27.797Z,2.72
2023-02-11T19:07:56.235Z,3.30
2023-02-11T19:10:23.728Z,3.78
2023-02-11T19:12:53.336Z,2.08
2023-02-11T19:15:20.221Z,3.20
2023-02-11T19:17:46.965Z,2.67
2023-02-11T19:20:13.826Z,1.92
2023-02-11T19:22:40.564Z,3.30
2023-02-11T19:25:07.379Z,3.72
2023-02-11T19:27:34.133Z,2.85
2023-02-11T19:30:01.063Z,5.38
2023-02-11T19:32:27.949Z,2.42
2023-02-11T19:34:54.722Z,3.85
2023-02-11T19:37:21.409Z,3.92
2023-02-11T19:39:48.187Z,3.00
2023-02-11T19:42:15.483Z,3.38
2023-02-11T19:44:42.443Z,6.30
2023-02-11T19:47:09.425Z,2.72
2023-02-11T19:49:36.350Z,3.45
2023-02-11T19:52:03.080Z,4.22
2023-02-11T19:54:30.215Z,2.55
2023-02-11T19:56:57.423Z,5.30
2023-02-11T19:59:24.308Z,3.17
2023-02-11T20:01:51.162Z,3.45
2023-02-11T20:04:17.981Z,3.30
2023-02-11T20:06:44.844Z,4.60
2023-02-11T20:09:13.025Z,5.15
2023-02-11T20:11:39.862Z,3.33
2023-02-11T20:14:06.706Z,2.97
2023-02-11T20:16:47.400Z,3.50
2023-02-11T20:19:16.157Z,8.63
2023-02-11T20:21:45.570Z,5.78
2023-02-11T20:24:13.361Z,3.35
2023-02-11T20:26:40.169Z,3.88
2023-02-11T20:29:06.934Z,2.83
2023-02-11T20:31:33.876Z,2.83
2023-02-11T20:34:01.016Z,3.65
2023-02-11T20:36:29.707Z,3.70
2023-02-11T20:38:56.597Z,3.58
2023-02-11T20:41:25.008Z,5.07
2023-02-11T20:43:53.208Z,3.42
2023-02-11T20:46:22.424Z,3.33
2023-02-11T20:48:49.384Z,2.88
2023-02-11T20:51:18.069Z,3.85
2023-02-11T20:53:46.018Z,2.72
2023-02-11T20:56:12.824Z,3.13
2023-02-11T20:58:39.854Z,3.13
2023-02-11T21:01:18.092Z,2.90
2023-02-11T21:03:48.882Z,6.65
2023-02-11T21:06:15.634Z,4.55
2023-02-11T21:08:42.335Z,4.50
2023-02-11T21:11:09.245Z,6.15
2023-02-11T21:13:36.702Z,5.88
2023-02-11T21:16:03.883Z,6.25
2023-02-11T21:18:30.716Z,4.18
2023-02-11T21:20:57.513Z,4.60
2023-02-11T21:23:24.202Z,4.53
2023-02-11T21:25:51.708Z,3.83
2023-02-11T21:28:18.520Z,5.00
2023-02-11T21:30:45.427Z,3.63
2023-02-11T21:33:12.162Z,3.95
2023-02-11T21:35:38.873Z,6.68
2023-02-11T21:38:05.642Z,4.38
2023-02-11T21:40:32.418Z,4.07
2023-02-11T21:42:59.106Z,4.40
2023-02-11T21:45:25.958Z,5.10
2023-02-11T21:47:52.827Z,4.95
2023-02-11T21:50:19.691Z,4.43
2023-02-11T21:52:46.444Z,4.20
2023-02-11T21:55:13.288Z,5.20
2023-02-11T21:57:39.976Z,4.03
2023-02-11T22:00:07.815Z,8.68
2023-02-11T22:02:34.700Z,6.18
2023-02-11T22:05:01.566Z,7.38
2023-02-11T22:07:28.375Z,5.22
2023-02-11T22:09:55.148Z,6.20
2023-02-11T22:12:22.830Z,8.45
2023-02-11T22:14:49.564Z,7.63
2023-02-11T22:17:16.386Z,5.53
2023-02-11T22:19:43.197Z,9.27
2023-02-11T22:22:09.903Z,5.55
2023-02-11T22:24:36.685Z,5.15
2023-02-11T22:27:03.512Z,5.40
2023-02-11T22:29:30.312Z,5.70
2023-02-11T22:31:57.157Z,5.10
2023-02-11T22:34:23.905Z,5.47
2023-02-11T22:36:50.563Z,8.98
2023-02-11T22:39:17.405Z,6.47
2023-02-11T22:41:45.018Z,8.82
2023-02-11T22:44:11.958Z,6.95
2023-02-11T22:46:38.785Z,4.63
2023-02-11T22:49:05.733Z,8.68
2023-02-11T22:51:32.524Z,4.82
2023-02-11T22:54:03.490Z,4.22
2023-02-11T22:56:30.956Z,4.18
2023-02-11T22:58:58.937Z,4.20
2023-02-11T23:01:25.771Z,6.45
2023-02-11T23:03:52.582Z,5.38
2023-02-11T23:06:19.346Z,7.68
2023-02-11T23:08:46.160Z,6.70
2023-02-11T23:11:14.180Z,8.27
2023-02-11T23:13:41.341Z,7.47
2023-02-11T23:16:13.293Z,5.38
2023-02-11T23:18:41.005Z,5.88
2023-02-11T23:21:19.038Z,7.32
2023-02-11T23:23:45.834Z,4.88
2023-02-11T23:26:13.146Z,4.20
2023-02-11T23:28:40.336Z,3.67
2023-02-11T23:31:16.817Z,3.97
2023-02-11T23:33:43.914Z,3.00
2023-02-11T23:36:10.721Z,3.72
2023-02-11T23:38:37.684Z,4.28
2023-02-11T23:41:04.580Z,3.90
2023-02-11T23:43:31.405Z,3.97
2023-02-11T23:45:58.374Z,5.15
2023-02-11T23:48:25.830Z,5.00
2023-02-11T23:50:52.655Z,4.00
2023-02-11T23:53:19.354Z,6.47
2023-02-11T23:55:46.471Z,4.82
2023-02-11T23:58:13.499Z,4.95
